Orbital elements of BREEZE-M DEB
| Launched | 27 February 2006 |
| Flight ended | – |
| Launch site | Tyuratam Missile and Space Center, Kazakhstan (Also known as Baikonur Cosmodrome) |
| Owner | Commonwealth of Independent States (former USSR) |
| NORAD ID | 34250 |
| Date fetched |
Epoch osculation |
Inc. [°] |
Ecc. | RA asc node [hr] |
Arg Peri. [°] |
Mean anom [°] |
Mean motion [rev/day] |
Abs. mag |
| Date fetched |
Epoch osculation |
Inc. [°] |
Ecc. | RA asc node [hr] |
Arg Peri. [°] |
Mean anom [°] |
Mean motion [rev/day] |
Abs. mag |
| 2026 May 09 17:57 | 2026 May 05 10:08:42 | 51.6785 | 0.50199 | 14.0373 | 338.8758 | 6.2128 | 5.32955 | – |
| 2026 May 08 17:57 | 2026 May 05 10:08:42 | 51.6785 | 0.50199 | 14.0373 | 338.8758 | 6.2128 | 5.32955 | – |
| 2026 May 07 17:58 | 2026 May 05 10:08:42 | 51.6785 | 0.50199 | 14.0373 | 338.8758 | 6.2128 | 5.32955 | – |
| 2026 May 06 17:57 | 2026 May 05 10:08:42 | 51.6785 | 0.50199 | 14.0373 | 338.8758 | 6.2128 | 5.32955 | – |
| 2026 May 05 17:57 | 2026 May 05 10:08:42 | 51.6785 | 0.50199 | 14.0373 | 338.8758 | 6.2128 | 5.32955 | – |
| 2026 May 04 17:57 | 2026 Apr 30 13:04:16 | 51.6805 | 0.50200 | 14.2759 | 336.2195 | 6.2128 | 5.32955 | – |
| 2026 May 03 17:57 | 2026 Apr 30 13:04:16 | 51.6805 | 0.50200 | 14.2759 | 336.2195 | 6.2128 | 5.32955 | – |
| 2026 May 02 17:57 | 2026 Apr 30 13:04:16 | 51.6805 | 0.50200 | 14.2759 | 336.2195 | 6.2128 | 5.32955 | – |
| 2026 May 01 17:56 | 2026 Apr 30 13:04:16 | 51.6805 | 0.50200 | 14.2759 | 336.2195 | 6.2128 | 5.32955 | – |
| 2026 Apr 30 17:56 | 2026 Apr 30 13:04:16 | 51.6805 | 0.50200 | 14.2759 | 336.2195 | 6.2128 | 5.32955 | – |
| 2026 Apr 29 17:57 | 2026 Apr 20 14:25:03 | 51.6913 | 0.50205 | 14.7622 | 330.8006 | 6.2128 | 5.32955 | – |
| 2026 Apr 28 17:56 | 2026 Apr 20 14:25:03 | 51.6913 | 0.50205 | 14.7622 | 330.8006 | 6.2128 | 5.32955 | – |
| 2026 Apr 27 17:58 | 2026 Apr 20 14:25:03 | 51.6913 | 0.50205 | 14.7622 | 330.8006 | 6.2128 | 5.32955 | – |
| 2026 Apr 26 17:58 | 2026 Apr 20 14:25:03 | 51.6913 | 0.50205 | 14.7622 | 330.8006 | 6.2128 | 5.32955 | – |
| 2026 Apr 25 17:58 | 2026 Apr 20 14:25:03 | 51.6913 | 0.50205 | 14.7622 | 330.8006 | 6.2128 | 5.32955 | – |
| 2026 Apr 24 17:59 | 2026 Apr 20 14:25:03 | 51.6913 | 0.50205 | 14.7622 | 330.8006 | 6.2128 | 5.32955 | – |
| 2026 Apr 23 17:57 | 2026 Apr 17 14:22:12 | 51.6870 | 0.50207 | 14.9088 | 329.1685 | 6.2128 | 5.32955 | – |
| 2026 Apr 22 17:57 | 2026 Apr 17 14:22:12 | 51.6870 | 0.50207 | 14.9088 | 329.1685 | 6.2128 | 5.32955 | – |
| 2026 Apr 21 17:57 | 2026 Apr 17 14:22:12 | 51.6870 | 0.50207 | 14.9088 | 329.1685 | 6.2128 | 5.32955 | – |
| 2026 Apr 20 17:57 | 2026 Apr 17 14:22:12 | 51.6870 | 0.50207 | 14.9088 | 329.1685 | 6.2128 | 5.32955 | – |
| 2026 Apr 19 17:58 | 2026 Apr 17 14:22:12 | 51.6870 | 0.50207 | 14.9088 | 329.1685 | 6.2128 | 5.32955 | – |
| 2026 Apr 18 17:56 | 2026 Apr 12 08:17:14 | 51.6875 | 0.50211 | 15.1654 | 326.3071 | 6.2128 | 5.32955 | – |
| 2026 Apr 16 17:57 | 2026 Apr 12 08:17:14 | 51.6875 | 0.50211 | 15.1654 | 326.3071 | 6.2128 | 5.32955 | – |
| 2026 Apr 14 17:57 | 2026 Apr 12 08:17:14 | 51.6875 | 0.50211 | 15.1654 | 326.3071 | 6.2128 | 5.32955 | – |
| 2026 Apr 13 17:57 | 2026 Apr 12 08:17:14 | 51.6875 | 0.50211 | 15.1654 | 326.3071 | 6.2128 | 5.32955 | – |
| 2026 Apr 12 17:57 | 2026 Apr 01 15:36:57 | 51.6955 | 0.50220 | 15.6882 | 320.4853 | 6.2128 | 5.32955 | – |